Time;durP1;ratioP1;P1;durP2;ratioP2;P2;SDS_P1;SDS_P2;PMS_P1;PMS_P2;Temp;Humidity;BMP_temperature;BMP_pressure;BME280_temperature;BME280_humidity;BME280_pressure;Samples;Min_cycle;Max_cycle;Signal;HPM_P1;HPM_P2
2021/11/30 00:00:14;;;;;;;;;;;20.60;35.40;;;;;;702899;27;1460;-76
2021/11/30 00:00:35;;;;;;;;;;;20.60;35.40;;;;;;701452;27;1236;-77
2021/11/30 00:00:55;;;;;;;;;;;20.60;35.50;;;;;;700654;28;1311;-78
2021/11/30 00:01:16;;;;;;;;;;;20.60;35.40;;;;;;700301;28;1371;-77
2021/11/30 00:01:37;;;;;;;;;;;20.60;35.40;;;;;;700173;28;1228;-76
2021/11/30 00:01:58;;;;;;;;;;;20.60;35.60;;;;;;700211;28;1291;-77
2021/11/30 00:02:18;;;;;;;;;;;20.50;35.30;;;;;;699786;28;1391;-76
2021/11/30 00:02:39;;;;;;;;;;;20.60;35.30;;;;;;699882;28;1191;-76
2021/11/30 00:03:00;;;;;;;;;;;20.50;35.30;;;;;;699712;28;1184;-77
2021/11/30 00:03:20;;;;;;;;;;;20.60;35.40;;;;;;699651;28;1224;-77
2021/11/30 00:03:41;;;;;;;;;;;20.60;35.30;;;;;;699632;28;1176;-79
2021/11/30 00:04:02;;;;;;;;;;;20.60;35.50;;;;;;700092;28;1231;-77
2021/11/30 00:04:28;;;;;;;;;;;20.60;35.40;;;;;;699486;28;1368;-77
2021/11/30 00:04:49;;;;;;;;;;;20.60;35.40;;;;;;699654;28;1395;-79
2021/11/30 00:05:09;;;;;;;;;;;20.50;35.30;;;;;;699796;28;1259;-77
2021/11/30 00:05:30;;;;;;;;;;;20.50;35.30;;;;;;699980;28;1231;-76
2021/11/30 00:05:50;;;;;;;;;;;20.50;35.40;;;;;;699765;28;1430;-78
2021/11/30 00:06:11;;;;;;;;;;;20.50;35.50;;;;;;700008;28;1328;-77
2021/11/30 00:06:33;;;;;;;;;;;20.50;35.40;;;;;;700294;28;1248;-76
2021/11/30 00:06:54;;;;;;;;;;;20.50;35.50;;;;;;700075;28;1168;-77
2021/11/30 00:07:14;;;;;;;;;;;20.50;35.40;;;;;;699812;28;1364;-79
2021/11/30 00:07:35;;;;;;;;;;;20.50;35.40;;;;;;700028;28;1139;-76
2021/11/30 00:07:56;;;;;;;;;;;20.50;35.50;;;;;;700663;28;1963;-77
2021/11/30 00:08:19;;;;;;;;;;;20.50;35.40;;;;;;700309;28;1386;-77
2021/11/30 00:08:40;;;;;;;;;;;20.50;35.40;;;;;;700676;28;1285;-77
2021/11/30 00:09:22;;;;;;;;;;;20.50;35.20;;;;;;700279;28;1307;-78
2021/11/30 00:10:45;;;;;;;;;;;20.50;35.50;;;;;;700007;28;1196;-76
2021/11/30 00:11:07;;;;;;;;;;;20.50;35.50;;;;;;699810;28;1264;-77
2021/11/30 00:11:28;;;;;;;;;;;20.50;35.30;;;;;;699782;28;1228;-76
2021/11/30 00:11:49;;;;;;;;;;;20.50;35.30;;;;;;700015;28;1215;-76
2021/11/30 00:12:12;;;;;;;;;;;20.50;35.40;;;;;;699465;28;1459;-76
2021/11/30 00:12:36;;;;;;;;;;;20.50;35.30;;;;;;702552;27;1355;-74
2021/11/30 00:12:56;;;;;;;;;;;20.50;35.40;;;;;;702316;27;1383;-75
2021/11/30 00:13:18;;;;;;;;;;;20.50;35.40;;;;;;702746;27;1287;-76
2021/11/30 00:13:39;;;;;;;;;;;20.50;35.40;;;;;;702797;28;1251;-77
2021/11/30 00:13:59;;;;;;;;;;;20.50;35.50;;;;;;702475;28;1422;-78
2021/11/30 00:14:20;;;;;;;;;;;20.50;35.50;;;;;;701539;27;1347;-77
2021/11/30 00:14:42;;;;;;;;;;;20.50;35.60;;;;;;701188;28;1288;-78
2021/11/30 00:15:03;;;;;;;;;;;20.50;35.40;;;;;;701654;28;1379;-78
2021/11/30 00:15:24;;;;;;;;;;;20.50;35.40;;;;;;700686;28;2491;-77
2021/11/30 00:15:45;;;;;;;;;;;20.50;35.50;;;;;;700597;28;1387;-78
2021/11/30 00:16:06;;;;;;;;;;;20.50;35.60;;;;;;700074;28;1193;-78
2021/11/30 00:16:27;;;;;;;;;;;20.50;35.40;;;;;;699689;28;1189;-79
2021/11/30 00:16:47;;;;;;;;;;;20.50;35.40;;;;;;699565;28;1340;-78
2021/11/30 00:17:11;;;;;;;;;;;20.50;35.40;;;;;;699389;28;1232;-78
2021/11/30 00:17:31;;;;;;;;;;;20.50;35.40;;;;;;700067;28;1164;-80
2021/11/30 00:17:52;;;;;;;;;;;20.50;35.50;;;;;;699542;28;1252;-82
2021/11/30 00:18:13;;;;;;;;;;;20.50;35.50;;;;;;700012;28;1185;-78
2021/11/30 00:18:34;;;;;;;;;;;20.50;35.60;;;;;;699909;28;1208;-81
2021/11/30 00:18:54;;;;;;;;;;;20.50;35.60;;;;;;699791;28;1243;-79
2021/11/30 00:19:15;;;;;;;;;;;20.50;35.50;;;;;;699822;28;1200;-79
2021/11/30 00:19:36;;;;;;;;;;;20.50;35.50;;;;;;700940;28;1369;-79
2021/11/30 00:19:56;;;;;;;;;;;20.50;35.50;;;;;;704848;28;832;-79
2021/11/30 00:20:17;;;;;;;;;;;20.50;35.50;;;;;;704725;28;872;-81
2021/11/30 00:20:38;;;;;;;;;;;20.50;35.40;;;;;;704621;28;824;-79
2021/11/30 00:21:00;;;;;;;;;;;20.50;35.40;;;;;;704753;28;794;-80
2021/11/30 00:21:21;;;;;;;;;;;20.50;35.50;;;;;;704825;28;829;-79
2021/11/30 00:21:41;;;;;;;;;;;20.50;35.60;;;;;;704809;28;814;-80
2021/11/30 00:22:03;;;;;;;;;;;20.50;35.60;;;;;;704743;28;944;-80
2021/11/30 00:22:24;;;;;;;;;;;20.50;35.60;;;;;;704828;28;1118;-80
2021/11/30 00:22:45;;;;;;;;;;;20.50;36.70;;;;;;704720;28;864;-80
2021/11/30 00:23:06;;;;;;;;;;;20.50;35.50;;;;;;704795;28;857;-81
2021/11/30 00:23:26;;;;;;;;;;;20.50;35.50;;;;;;704668;28;853;-80
2021/11/30 00:23:47;;;;;;;;;;;20.50;35.50;;;;;;704783;28;865;-80
2021/11/30 00:24:08;;;;;;;;;;;20.50;35.50;;;;;;704770;28;818;-79
2021/11/30 00:24:29;;;;;;;;;;;20.50;35.50;;;;;;704734;28;905;-78
2021/11/30 00:24:51;;;;;;;;;;;20.50;35.50;;;;;;704664;28;794;-79
2021/11/30 00:25:11;;;;;;;;;;;20.50;35.60;;;;;;704543;28;1579;-79
2021/11/30 00:25:32;;;;;;;;;;;20.50;35.60;;;;;;704877;28;873;-79
2021/11/30 00:25:53;;;;;;;;;;;20.50;35.50;;;;;;704682;28;952;-78
2021/11/30 00:26:13;;;;;;;;;;;20.50;35.50;;;;;;704542;28;1124;-85
2021/11/30 00:26:34;;;;;;;;;;;20.50;35.60;;;;;;704671;28;941;-80
2021/11/30 00:26:54;;;;;;;;;;;20.50;35.50;;;;;;704562;28;869;-80
2021/11/30 00:27:15;;;;;;;;;;;20.50;35.70;;;;;;704717;28;797;-80
2021/11/30 00:27:35;;;;;;;;;;;20.50;35.50;;;;;;704543;28;944;-80
2021/11/30 00:27:56;;;;;;;;;;;20.50;35.50;;;;;;704102;28;1890;-80
2021/11/30 00:28:16;;;;;;;;;;;20.50;35.50;;;;;;704250;28;897;-79
2021/11/30 00:28:37;;;;;;;;;;;20.40;35.50;;;;;;704458;28;829;-82
2021/11/30 00:28:58;;;;;;;;;;;20.50;35.60;;;;;;704407;28;901;-80
2021/11/30 00:29:18;;;;;;;;;;;20.50;35.50;;;;;;704470;28;1190;-79
2021/11/30 00:29:39;;;;;;;;;;;20.40;35.50;;;;;;703757;28;1535;-80
2021/11/30 00:29:59;;;;;;;;;;;20.50;35.50;;;;;;704600;28;881;-79
2021/11/30 00:30:21;;;;;;;;;;;20.50;35.50;;;;;;701226;28;965;-79
2021/11/30 00:30:42;;;;;;;;;;;20.40;35.50;;;;;;701780;28;838;-79
2021/11/30 00:31:04;;;;;;;;;;;20.40;35.50;;;;;;701463;28;1632;-80
2021/11/30 00:31:24;;;;;;;;;;;20.50;35.60;;;;;;702282;28;1601;-78
2021/11/30 00:31:45;;;;;;;;;;;20.40;35.50;;;;;;704544;28;845;-78
2021/11/30 00:32:06;;;;;;;;;;;20.50;35.60;;;;;;704624;28;1039;-82
2021/11/30 00:32:27;;;;;;;;;;;20.40;35.50;;;;;;704573;28;990;-79
2021/11/30 00:32:48;;;;;;;;;;;20.50;35.50;;;;;;704782;28;801;-79
2021/11/30 00:33:09;;;;;;;;;;;20.40;35.70;;;;;;704672;28;806;-78
2021/11/30 00:33:30;;;;;;;;;;;20.40;35.50;;;;;;704748;28;882;-78
2021/11/30 00:33:50;;;;;;;;;;;20.40;35.50;;;;;;704784;28;900;-78
2021/11/30 00:34:11;;;;;;;;;;;20.40;35.60;;;;;;704773;28;972;-79
2021/11/30 00:34:32;;;;;;;;;;;20.40;35.50;;;;;;704642;28;917;-79
2021/11/30 00:34:52;;;;;;;;;;;20.40;35.50;;;;;;704454;28;1404;-78
2021/11/30 00:35:13;;;;;;;;;;;20.40;35.50;;;;;;704386;28;1076;-79
2021/11/30 00:35:34;;;;;;;;;;;20.50;35.50;;;;;;704474;28;893;-78
2021/11/30 00:35:54;;;;;;;;;;;20.40;35.50;;;;;;704600;28;786;-79
2021/11/30 00:36:17;;;;;;;;;;;20.40;35.40;;;;;;704465;28;949;-82
2021/11/30 00:36:38;;;;;;;;;;;20.40;35.50;;;;;;704519;28;794;-78
2021/11/30 00:36:58;;;;;;;;;;;20.40;35.40;;;;;;704655;28;948;-79
2021/11/30 00:37:22;;;;;;;;;;;20.40;35.50;;;;;;704759;28;803;-79
2021/11/30 00:37:42;;;;;;;;;;;20.40;35.50;;;;;;704752;28;794;-79
2021/11/30 00:38:03;;;;;;;;;;;20.40;35.40;;;;;;704520;28;1622;-80
2021/11/30 00:38:26;;;;;;;;;;;20.40;35.50;;;;;;704749;28;948;-78
2021/11/30 00:38:47;;;;;;;;;;;20.40;35.50;;;;;;701694;28;846;-78
2021/11/30 00:39:08;;;;;;;;;;;20.40;35.50;;;;;;701696;28;818;-81
2021/11/30 00:39:28;;;;;;;;;;;20.40;35.50;;;;;;701616;28;837;-80
2021/11/30 00:39:49;;;;;;;;;;;20.40;35.50;;;;;;701810;28;805;-77
2021/11/30 00:40:09;;;;;;;;;;;20.40;35.40;;;;;;701785;28;838;-75
2021/11/30 00:40:30;;;;;;;;;;;20.40;35.30;;;;;;699033;28;1198;-76
2021/11/30 00:40:50;;;;;;;;;;;20.40;35.40;;;;;;704544;28;778;-78
2021/11/30 00:41:11;;;;;;;;;;;20.40;35.50;;;;;;704571;28;770;-76
2021/11/30 00:41:32;;;;;;;;;;;20.40;35.50;;;;;;704457;28;794;-77
2021/11/30 00:41:56;;;;;;;;;;;20.40;35.50;;;;;;704533;28;878;-76
2021/11/30 00:42:20;;;;;;;;;;;20.40;35.40;;;;;;704614;28;892;-77
2021/11/30 00:42:41;;;;;;;;;;;20.40;35.40;;;;;;704700;28;865;-76
2021/11/30 00:43:02;;;;;;;;;;;20.40;35.50;;;;;;704674;28;881;-76
2021/11/30 00:43:26;;;;;;;;;;;20.40;35.50;;;;;;704706;28;909;-77
2021/11/30 00:43:48;;;;;;;;;;;20.40;35.40;;;;;;704626;28;864;-77
2021/11/30 00:44:14;;;;;;;;;;;20.40;35.40;;;;;;704877;28;880;-76
2021/11/30 00:44:37;;;;;;;;;;;20.40;35.50;;;;;;704594;28;1053;-78
2021/11/30 00:45:00;;;;;;;;;;;20.40;35.50;;;;;;704727;28;785;-78
2021/11/30 00:45:21;;;;;;;;;;;20.50;35.60;;;;;;704769;28;833;-78
2021/11/30 00:45:51;;;;;;;;;;;20.40;35.40;;;;;;704712;28;794;-80
2021/11/30 00:46:15;;;;;;;;;;;20.40;35.50;;;;;;703736;28;1275;-77
2021/11/30 00:46:38;;;;;;;;;;;20.40;35.40;;;;;;704515;28;908;-83
2021/11/30 00:46:59;;;;;;;;;;;20.40;35.40;;;;;;704519;28;822;-81
2021/11/30 00:47:27;;;;;;;;;;;20.40;35.40;;;;;;704557;28;774;-80
2021/11/30 00:48:31;;;;;;;;;;;20.40;35.30;;;;;;701502;28;1046;-80
2021/11/30 00:48:52;;;;;;;;;;;20.40;35.30;;;;;;701495;28;857;-80
2021/11/30 00:49:13;;;;;;;;;;;20.40;35.30;;;;;;701625;28;908;-80
2021/11/30 00:49:33;;;;;;;;;;;20.40;35.40;;;;;;701550;28;1150;-80
2021/11/30 00:49:54;;;;;;;;;;;20.40;35.30;;;;;;701585;28;790;-79
2021/11/30 00:50:15;;;;;;;;;;;20.40;35.20;;;;;;701592;28;880;-79
2021/11/30 00:50:38;;;;;;;;;;;20.40;35.30;;;;;;701616;28;821;-80
2021/11/30 00:51:07;;;;;;;;;;;20.40;35.20;;;;;;701384;28;1174;-79
2021/11/30 00:51:28;;;;;;;;;;;20.40;35.30;;;;;;701563;28;841;-80
2021/11/30 00:51:49;;;;;;;;;;;20.40;35.20;;;;;;701516;28;892;-81
2021/11/30 00:52:10;;;;;;;;;;;20.40;35.10;;;;;;698761;28;1681;-80
2021/11/30 00:52:31;;;;;;;;;;;20.40;35.20;;;;;;698070;28;1617;-79
2021/11/30 00:52:52;;;;;;;;;;;20.40;35.20;;;;;;698691;28;774;-80
2021/11/30 00:53:12;;;;;;;;;;;20.40;36.40;;;;;;698776;28;917;-82
2021/11/30 00:53:34;;;;;;;;;;;20.40;35.20;;;;;;698817;28;849;-80
2021/11/30 00:53:54;;;;;;;;;;;20.40;35.30;;;;;;699234;28;826;-80
2021/11/30 00:54:15;;;;;;;;;;;20.40;35.30;;;;;;701311;28;982;-79
2021/11/30 00:54:36;;;;;;;;;;;20.40;35.40;;;;;;701535;28;874;-79
2021/11/30 00:54:57;;;;;;;;;;;20.40;35.30;;;;;;701508;28;853;-80
2021/11/30 00:55:18;;;;;;;;;;;20.40;35.30;;;;;;701514;28;834;-80
2021/11/30 00:55:38;;;;;;;;;;;20.40;35.30;;;;;;701552;28;849;-77
2021/11/30 00:55:59;;;;;;;;;;;20.30;35.20;;;;;;701054;28;1090;-79
2021/11/30 00:56:20;;;;;;;;;;;20.40;35.30;;;;;;698681;28;790;-79
2021/11/30 00:56:42;;;;;;;;;;;20.40;35.20;;;;;;698735;28;857;-81
2021/11/30 00:57:02;;;;;;;;;;;20.40;35.20;;;;;;698693;28;1048;-78
2021/11/30 00:57:23;;;;;;;;;;;20.40;35.10;;;;;;698898;28;845;-80
2021/11/30 00:57:44;;;;;;;;;;;20.30;35.10;;;;;;698753;28;815;-79
2021/11/30 00:58:05;;;;;;;;;;;20.30;35.20;;;;;;698752;28;873;-79
2021/11/30 00:58:26;;;;;;;;;;;20.40;35.30;;;;;;698750;28;924;-80
2021/11/30 00:58:47;;;;;;;;;;;20.40;35.30;;;;;;698713;28;903;-79
2021/11/30 00:59:07;;;;;;;;;;;20.30;35.30;;;;;;698728;28;762;-80
2021/11/30 00:59:28;;;;;;;;;;;20.30;35.20;;;;;;698799;28;886;-79
2021/11/30 00:59:51;;;;;;;;;;;20.40;35.20;;;;;;698737;28;826;-80
2021/11/30 01:00:14;;;;;;;;;;;20.40;35.40;;;;;;698898;28;794;-79
2021/11/30 01:00:35;;;;;;;;;;;20.40;35.40;;;;;;695451;28;905;-79
2021/11/30 01:00:56;;;;;;;;;;;20.40;35.30;;;;;;695735;28;1329;-78
2021/11/30 01:01:17;;;;;;;;;;;20.30;35.20;;;;;;696099;28;564;-78
2021/11/30 01:01:39;;;;;;;;;;;20.30;35.20;;;;;;692834;28;1487;-78
2021/11/30 01:02:00;;;;;;;;;;;20.40;35.30;;;;;;693265;28;854;-80
2021/11/30 01:02:20;;;;;;;;;;;20.30;35.30;;;;;;693251;28;819;-79
2021/11/30 01:02:41;;;;;;;;;;;20.30;35.20;;;;;;693624;28;866;-80
2021/11/30 01:03:05;;;;;;;;;;;20.40;35.30;;;;;;695896;28;842;-80
2021/11/30 01:03:26;;;;;;;;;;;20.40;35.30;;;;;;697029;28;857;-79
2021/11/30 01:03:47;;;;;;;;;;;20.30;35.20;;;;;;698724;28;782;-79
2021/11/30 01:04:11;;;;;;;;;;;20.30;35.20;;;;;;698814;28;817;-77
2021/11/30 01:04:32;;;;;;;;;;;20.30;35.80;;;;;;698703;28;885;-80
2021/11/30 01:04:52;;;;;;;;;;;20.30;35.30;;;;;;698326;28;1286;-78
2021/11/30 01:05:13;;;;;;;;;;;20.40;35.30;;;;;;698758;28;905;-79
2021/11/30 01:05:35;;;;;;;;;;;20.30;35.30;;;;;;698754;28;853;-78
2021/11/30 01:05:55;;;;;;;;;;;20.30;35.30;;;;;;695850;28;881;-77
2021/11/30 01:06:16;;;;;;;;;;;20.30;35.30;;;;;;695989;28;878;-77
2021/11/30 01:06:37;;;;;;;;;;;20.30;35.30;;;;;;693204;28;1287;-77
2021/11/30 01:06:58;;;;;;;;;;;20.30;35.40;;;;;;689996;28;1255;-78
2021/11/30 01:07:19;;;;;;;;;;;20.30;35.20;;;;;;690035;28;1141;-76
2021/11/30 01:07:40;;;;;;;;;;;20.40;35.30;;;;;;691022;28;891;-77
2021/11/30 01:08:01;;;;;;;;;;;20.30;35.30;;;;;;693227;28;1955;-77
2021/11/30 01:08:21;;;;;;;;;;;20.30;35.30;;;;;;693828;28;791;-81
2021/11/30 01:08:42;;;;;;;;;;;20.30;35.40;;;;;;696205;28;853;-79
2021/11/30 01:09:03;;;;;;;;;;;20.30;35.30;;;;;;698547;28;907;-79
2021/11/30 01:09:24;;;;;;;;;;;20.30;35.30;;;;;;698801;28;948;-80
2021/11/30 01:09:44;;;;;;;;;;;20.30;35.20;;;;;;698764;28;849;-79
2021/11/30 01:10:07;;;;;;;;;;;20.30;35.20;;;;;;698706;28;936;-79
2021/11/30 01:10:28;;;;;;;;;;;20.30;35.30;;;;;;698806;28;1052;-79
2021/11/30 01:10:51;;;;;;;;;;;20.30;35.30;;;;;;695822;28;1235;-79
2021/11/30 01:11:12;;;;;;;;;;;20.30;35.30;;;;;;695974;28;885;-78
2021/11/30 01:11:33;;;;;;;;;;;20.40;35.40;;;;;;695949;28;893;-77
2021/11/30 01:11:53;;;;;;;;;;;20.40;35.40;;;;;;695999;28;791;-77
2021/11/30 01:12:14;;;;;;;;;;;20.30;35.40;;;;;;695915;28;941;-78
2021/11/30 01:12:34;;;;;;;;;;;20.40;35.40;;;;;;696656;28;811;-79
2021/11/30 01:12:55;;;;;;;;;;;20.30;35.40;;;;;;698562;28;913;-79
2021/11/30 01:13:16;;;;;;;;;;;20.40;35.40;;;;;;698665;28;874;-76
2021/11/30 01:13:37;;;;;;;;;;;20.40;35.50;;;;;;698671;28;1102;-79
2021/11/30 01:13:57;;;;;;;;;;;20.30;35.50;;;;;;698717;28;833;-78
2021/11/30 01:14:18;;;;;;;;;;;20.30;35.30;;;;;;698701;28;890;-78
2021/11/30 01:14:41;;;;;;;;;;;20.30;35.40;;;;;;698602;28;980;-78
2021/11/30 01:15:04;;;;;;;;;;;20.30;35.40;;;;;;698595;28;877;-78
2021/11/30 01:15:25;;;;;;;;;;;20.30;35.40;;;;;;698741;28;575;-77
2021/11/30 01:15:46;;;;;;;;;;;20.30;35.30;;;;;;698703;28;867;-78
2021/11/30 01:16:07;;;;;;;;;;;20.30;35.40;;;;;;698692;28;850;-79
2021/11/30 01:16:27;;;;;;;;;;;20.30;35.50;;;;;;698779;28;787;-79
2021/11/30 01:16:48;;;;;;;;;;;20.30;35.40;;;;;;698728;28;806;-79
2021/11/30 01:17:09;;;;;;;;;;;20.30;35.40;;;;;;698602;28;845;-76
2021/11/30 01:17:29;;;;;;;;;;;20.30;35.40;;;;;;698687;28;807;-79
2021/11/30 01:17:51;;;;;;;;;;;20.30;35.50;;;;;;695438;28;975;-79
2021/11/30 01:18:11;;;;;;;;;;;20.30;35.40;;;;;;695976;28;815;-78
2021/11/30 01:18:32;;;;;;;;;;;20.30;35.50;;;;;;696022;28;806;-78
2021/11/30 01:18:53;;;;;;;;;;;20.30;35.40;;;;;;696009;28;803;-77
2021/11/30 01:19:14;;;;;;;;;;;20.30;35.30;;;;;;695945;28;823;-79
2021/11/30 01:19:35;;;;;;;;;;;20.30;35.20;;;;;;696434;28;794;-80
2021/11/30 01:19:55;;;;;;;;;;;20.30;35.40;;;;;;698784;28;881;-79
2021/11/30 01:20:16;;;;;;;;;;;20.30;35.30;;;;;;698664;28;1158;-79
2021/11/30 01:20:37;;;;;;;;;;;20.30;35.30;;;;;;698665;28;882;-76
2021/11/30 01:20:58;;;;;;;;;;;20.30;35.30;;;;;;698609;28;921;-76
2021/11/30 01:21:19;;;;;;;;;;;20.30;35.30;;;;;;698637;28;863;-80
2021/11/30 01:21:40;;;;;;;;;;;20.30;35.40;;;;;;698674;28;782;-77
2021/11/30 01:22:00;;;;;;;;;;;20.30;35.40;;;;;;698664;28;890;-79
2021/11/30 01:22:21;;;;;;;;;;;20.30;35.30;;;;;;698760;28;838;-79
2021/11/30 01:22:41;;;;;;;;;;;20.30;35.40;;;;;;698698;28;877;-79
2021/11/30 01:23:03;;;;;;;;;;;20.30;35.40;;;;;;695814;28;854;-79
2021/11/30 01:23:26;;;;;;;;;;;20.30;35.30;;;;;;695919;28;815;-81
2021/11/30 01:23:46;;;;;;;;;;;20.30;35.30;;;;;;695800;28;802;-80
2021/11/30 01:24:08;;;;;;;;;;;20.30;35.30;;;;;;696003;28;932;-79
2021/11/30 01:24:28;;;;;;;;;;;20.30;35.20;;;;;;696061;28;834;-79
2021/11/30 01:24:51;;;;;;;;;;;20.30;35.30;;;;;;696723;28;807;-79
2021/11/30 01:25:12;;;;;;;;;;;20.30;35.30;;;;;;698621;28;879;-78
2021/11/30 01:25:33;;;;;;;;;;;20.30;35.20;;;;;;698710;28;841;-78
2021/11/30 01:25:54;;;;;;;;;;;20.30;35.30;;;;;;698704;28;810;-78
2021/11/30 01:26:14;;;;;;;;;;;20.30;35.30;;;;;;698476;28;1086;-79
2021/11/30 01:26:35;;;;;;;;;;;20.30;35.30;;;;;;700081;28;1125;-79
2021/11/30 01:26:56;;;;;;;;;;;20.30;35.20;;;;;;701823;28;862;-78
2021/11/30 01:27:16;;;;;;;;;;;20.30;35.20;;;;;;701864;28;845;-77
2021/11/30 01:27:37;;;;;;;;;;;20.30;35.20;;;;;;701840;28;841;-78
2021/11/30 01:27:58;;;;;;;;;;;20.30;35.40;;;;;;701713;28;2363;-83
2021/11/30 01:28:19;;;;;;;;;;;20.30;35.30;;;;;;701857;28;814;-81
2021/11/30 01:28:39;;;;;;;;;;;20.30;35.30;;;;;;701851;28;845;-78
2021/11/30 01:29:00;;;;;;;;;;;20.30;35.30;;;;;;701827;28;858;-77
2021/11/30 01:29:20;;;;;;;;;;;20.30;35.40;;;;;;701921;28;826;-76
2021/11/30 01:29:41;;;;;;;;;;;20.30;35.20;;;;;;701830;28;901;-75
2021/11/30 01:30:03;;;;;;;;;;;20.30;35.20;;;;;;701843;28;802;-76
2021/11/30 01:30:24;;;;;;;;;;;20.30;35.30;;;;;;701830;28;1268;-77
2021/11/30 01:30:44;;;;;;;;;;;20.30;35.30;;;;;;701562;28;1234;-79
2021/11/30 01:31:05;;;;;;;;;;;20.30;35.30;;;;;;701543;28;923;-78
2021/11/30 01:31:25;;;;;;;;;;;20.30;35.20;;;;;;698379;28;1448;-79
2021/11/30 01:31:46;;;;;;;;;;;20.30;35.20;;;;;;698874;28;794;-79
2021/11/30 01:32:07;;;;;;;;;;;20.30;35.20;;;;;;698713;28;854;-79
2021/11/30 01:32:27;;;;;;;;;;;20.30;35.20;;;;;;699067;28;847;-79
2021/11/30 01:32:48;;;;;;;;;;;20.30;35.20;;;;;;701662;28;801;-79
2021/11/30 01:33:09;;;;;;;;;;;20.30;35.30;;;;;;701625;28;882;-77
2021/11/30 01:33:29;;;;;;;;;;;20.30;35.20;;;;;;701851;28;834;-79
2021/11/30 01:33:50;;;;;;;;;;;20.30;35.20;;;;;;701876;28;858;-79
2021/11/30 01:34:11;;;;;;;;;;;20.30;35.20;;;;;;701742;28;806;-79
2021/11/30 01:34:31;;;;;;;;;;;20.30;35.30;;;;;;701763;28;889;-78
2021/11/30 01:34:52;;;;;;;;;;;20.30;35.20;;;;;;701812;28;798;-79
2021/11/30 01:35:13;;;;;;;;;;;20.30;35.30;;;;;;701888;28;774;-79
2021/11/30 01:35:34;;;;;;;;;;;20.30;35.20;;;;;;701861;28;857;-80
2021/11/30 01:35:55;;;;;;;;;;;20.30;35.10;;;;;;701859;28;833;-79
2021/11/30 01:36:16;;;;;;;;;;;20.30;35.20;;;;;;701731;28;853;-80
2021/11/30 01:36:37;;;;;;;;;;;20.30;35.10;;;;;;701845;28;893;-79
2021/11/30 01:36:57;;;;;;;;;;;20.30;35.10;;;;;;701777;28;790;-80
2021/11/30 01:37:18;;;;;;;;;;;20.30;35.10;;;;;;701865;28;779;-80
2021/11/30 01:37:39;;;;;;;;;;;20.30;35.20;;;;;;701928;28;774;-78
2021/11/30 01:38:00;;;;;;;;;;;20.30;35.20;;;;;;701813;28;810;-80
2021/11/30 01:38:21;;;;;;;;;;;20.30;35.20;;;;;;701051;28;932;-78
2021/11/30 01:38:42;;;;;;;;;;;20.30;35.10;;;;;;701698;28;806;-79
2021/11/30 01:39:05;;;;;;;;;;;20.30;35.10;;;;;;701508;28;948;-79
2021/11/30 01:39:25;;;;;;;;;;;20.30;35.00;;;;;;701646;28;805;-79
2021/11/30 01:39:48;;;;;;;;;;;20.30;35.00;;;;;;702116;28;1128;-78
2021/11/30 01:40:11;;;;;;;;;;;20.30;35.00;;;;;;702297;28;829;-77
2021/11/30 01:40:32;;;;;;;;;;;20.30;35.00;;;;;;702254;28;960;-78
2021/11/30 01:40:53;;;;;;;;;;;20.30;35.00;;;;;;702258;28;948;-79
2021/11/30 01:41:14;;;;;;;;;;;20.30;35.00;;;;;;702387;28;837;-79
2021/11/30 01:41:38;;;;;;;;;;;20.30;35.00;;;;;;702343;28;877;-78
2021/11/30 01:41:59;;;;;;;;;;;20.30;35.00;;;;;;702368;28;793;-79
2021/11/30 01:42:20;;;;;;;;;;;20.30;35.00;;;;;;702310;28;912;-80
2021/11/30 01:42:44;;;;;;;;;;;20.30;35.00;;;;;;701971;28;1096;-79
2021/11/30 01:43:08;;;;;;;;;;;20.30;35.00;;;;;;702082;28;857;-79
2021/11/30 01:43:37;;;;;;;;;;;20.30;35.00;;;;;;702131;28;810;-79
2021/11/30 01:44:00;;;;;;;;;;;20.30;34.80;;;;;;702207;28;810;-78
2021/11/30 01:45:06;;;;;;;;;;;20.30;34.80;;;;;;702132;28;940;-78
2021/11/30 01:45:07;;;;;;;;;;;20.30;34.70;;;;;;701754;28;1245;-78
2021/11/30 01:45:32;;;;;;;;;;;20.30;34.70;;;;;;702422;28;762;-76
2021/11/30 01:46:06;;;;;;;;;;;20.30;34.80;;;;;;702295;28;850;-77
2021/11/30 01:46:29;;;;;;;;;;;20.30;34.80;;;;;;702353;28;802;-78
2021/11/30 01:47:08;;;;;;;;;;;20.30;34.70;;;;;;702262;28;846;-77
2021/11/30 01:48:09;;;;;;;;;;;20.30;34.70;;;;;;702388;28;691;-77
2021/11/30 01:49:35;;;;;;;;;;;20.30;34.70;;;;;;702204;28;893;-78
2021/11/30 01:49:59;;;;;;;;;;;20.20;34.60;;;;;;702160;28;841;-78
2021/11/30 01:50:20;;;;;;;;;;;20.30;34.60;;;;;;702135;28;838;-78
2021/11/30 01:50:40;;;;;;;;;;;20.20;34.30;;;;;;702234;28;826;-77
2021/11/30 01:51:01;;;;;;;;;;;20.30;34.50;;;;;;702164;28;823;-77
2021/11/30 01:51:23;;;;;;;;;;;20.30;34.60;;;;;;702035;28;814;-76
2021/11/30 01:51:43;;;;;;;;;;;20.20;34.40;;;;;;702119;28;775;-76
2021/11/30 01:52:05;;;;;;;;;;;20.30;34.40;;;;;;702237;28;850;-77
2021/11/30 01:52:26;;;;;;;;;;;20.30;34.30;;;;;;702184;28;799;-78
2021/11/30 01:52:49;;;;;;;;;;;20.30;34.50;;;;;;702027;28;928;-77
2021/11/30 01:53:10;;;;;;;;;;;20.30;34.50;;;;;;702154;28;751;-77
2021/11/30 01:53:30;;;;;;;;;;;20.30;34.50;;;;;;702422;28;798;-77
2021/11/30 01:53:52;;;;;;;;;;;20.30;34.60;;;;;;702220;28;837;-76
2021/11/30 01:54:12;;;;;;;;;;;20.20;34.40;;;;;;702396;28;905;-77
2021/11/30 01:54:38;;;;;;;;;;;20.20;34.40;;;;;;702352;28;948;-77
2021/11/30 01:54:59;;;;;;;;;;;20.20;34.30;;;;;;701846;28;810;-77
2021/11/30 01:55:19;;;;;;;;;;;20.30;34.50;;;;;;702063;28;876;-77
2021/11/30 01:55:43;;;;;;;;;;;20.20;34.40;;;;;;702151;28;834;-76
2021/11/30 01:56:04;;;;;;;;;;;20.30;34.30;;;;;;702953;28;1030;-77
2021/11/30 01:56:25;;;;;;;;;;;20.30;34.50;;;;;;705000;28;814;-77
2021/11/30 01:56:45;;;;;;;;;;;20.20;34.40;;;;;;704958;28;825;-77
2021/11/30 01:57:07;;;;;;;;;;;20.20;34.40;;;;;;704994;28;940;-78
2021/11/30 01:57:27;;;;;;;;;;;20.20;34.50;;;;;;704439;28;1316;-77
2021/11/30 01:57:51;;;;;;;;;;;20.20;34.40;;;;;;704926;28;821;-77
2021/11/30 01:58:12;;;;;;;;;;;20.20;34.30;;;;;;704921;28;782;-78
2021/11/30 01:58:33;;;;;;;;;;;20.20;34.30;;;;;;702080;28;1625;-76
2021/11/30 01:58:54;;;;;;;;;;;20.20;34.40;;;;;;702044;28;822;-77
2021/11/30 01:59:15;;;;;;;;;;;20.20;34.30;;;;;;700125;28;1191;-77
2021/11/30 01:59:36;;;;;;;;;;;20.20;34.40;;;;;;702099;28;818;-78
2021/11/30 01:59:58;;;;;;;;;;;20.20;34.30;;;;;;702145;28;877;-78
2021/11/30 02:00:21;;;;;;;;;;;20.20;34.30;;;;;;702762;28;841;-78
2021/11/30 02:00:42;;;;;;;;;;;20.20;34.30;;;;;;704802;28;858;-78
2021/11/30 02:01:03;;;;;;;;;;;20.20;34.30;;;;;;704895;28;759;-78
2021/11/30 02:01:23;;;;;;;;;;;20.20;34.40;;;;;;705093;27;904;-78
2021/11/30 02:01:44;;;;;;;;;;;20.20;34.20;;;;;;705070;28;914;-78
2021/11/30 02:02:05;;;;;;;;;;;20.20;34.30;;;;;;705071;28;896;-78
2021/11/30 02:02:25;;;;;;;;;;;20.20;34.10;;;;;;705164;28;770;-78
2021/11/30 02:02:46;;;;;;;;;;;20.20;34.20;;;;;;705129;28;920;-78
2021/11/30 02:03:07;;;;;;;;;;;20.20;34.30;;;;;;705049;28;813;-78
2021/11/30 02:03:27;;;;;;;;;;;20.20;34.40;;;;;;704909;28;846;-78
2021/11/30 02:03:48;;;;;;;;;;;20.20;34.30;;;;;;705034;28;1091;-78
2021/11/30 02:04:09;;;;;;;;;;;20.20;34.30;;;;;;705129;28;858;-78
2021/11/30 02:04:30;;;;;;;;;;;20.20;34.30;;;;;;705169;28;884;-78
2021/11/30 02:04:50;;;;;;;;;;;20.20;34.30;;;;;;704774;28;1285;-79
2021/11/30 02:05:11;;;;;;;;;;;20.20;34.30;;;;;;704842;28;940;-77
2021/11/30 02:05:37;;;;;;;;;;;20.20;34.30;;;;;;704831;28;826;-78
2021/11/30 02:05:57;;;;;;;;;;;20.10;34.40;;;;;;704903;28;974;-78
2021/11/30 02:06:18;;;;;;;;;;;20.20;34.50;;;;;;704893;28;862;-78
2021/11/30 02:06:38;;;;;;;;;;;20.20;34.40;;;;;;704971;28;849;-78
2021/11/30 02:06:59;;;;;;;;;;;20.20;34.30;;;;;;704883;28;826;-79
2021/11/30 02:07:20;;;;;;;;;;;20.20;34.40;;;;;;705104;28;928;-79
2021/11/30 02:07:41;;;;;;;;;;;20.20;34.40;;;;;;704989;28;857;-78
2021/11/30 02:08:01;;;;;;;;;;;20.10;34.30;;;;;;705060;28;1929;-77
2021/11/30 02:08:25;;;;;;;;;;;20.20;34.30;;;;;;705131;27;837;-78
2021/11/30 02:08:46;;;;;;;;;;;20.20;34.40;;;;;;705115;28;877;-78
2021/11/30 02:09:07;;;;;;;;;;;20.20;34.20;;;;;;704946;28;857;-77
2021/11/30 02:09:27;;;;;;;;;;;20.20;34.30;;;;;;705177;28;797;-78
2021/11/30 02:09:48;;;;;;;;;;;20.20;34.20;;;;;;704959;28;770;-77
2021/11/30 02:10:13;;;;;;;;;;;20.20;34.30;;;;;;705099;28;825;-77
2021/11/30 02:10:34;;;;;;;;;;;20.20;34.30;;;;;;705177;27;932;-78
2021/11/30 02:10:56;;;;;;;;;;;20.20;34.40;;;;;;704996;28;802;-78
2021/11/30 02:11:17;;;;;;;;;;;20.20;34.20;;;;;;705164;28;868;-78
2021/11/30 02:11:37;;;;;;;;;;;20.20;34.20;;;;;;705129;28;921;-78
2021/11/30 02:11:58;;;;;;;;;;;20.10;34.20;;;;;;704994;28;956;-78
2021/11/30 02:12:20;;;;;;;;;;;20.10;34.20;;;;;;705081;28;782;-78
2021/11/30 02:12:41;;;;;;;;;;;20.10;34.10;;;;;;705068;28;834;-78
2021/11/30 02:13:02;;;;;;;;;;;20.20;34.10;;;;;;704682;28;1929;-77
2021/11/30 02:13:24;;;;;;;;;;;20.20;34.30;;;;;;704876;28;1630;-79
2021/11/30 02:13:45;;;;;;;;;;;20.10;34.10;;;;;;704892;28;802;-79